sensor_id;sensor_type;location;lat;lon;timestamp;temperature;humidity
12977;DHT22;6553;48.412;9.514;2023-03-31T00:01:38;19.00;55.70
12977;DHT22;6553;48.412;9.514;2023-03-31T00:04:08;19.00;55.70
12977;DHT22;6553;48.412;9.514;2023-03-31T00:06:39;19.00;55.70
12977;DHT22;6553;48.412;9.514;2023-03-31T00:09:16;19.00;55.70
12977;DHT22;6553;48.412;9.514;2023-03-31T00:11:44;19.00;55.70
12977;DHT22;6553;48.412;9.514;2023-03-31T00:14:10;19.00;55.80
12977;DHT22;6553;48.412;9.514;2023-03-31T00:16:37;19.00;55.70
12977;DHT22;6553;48.412;9.514;2023-03-31T00:19:04;19.00;55.70
12977;DHT22;6553;48.412;9.514;2023-03-31T00:21:34;19.00;55.70
12977;DHT22;6553;48.412;9.514;2023-03-31T00:24:03;19.00;55.70
12977;DHT22;6553;48.412;9.514;2023-03-31T00:26:32;19.00;55.70
12977;DHT22;6553;48.412;9.514;2023-03-31T00:28:59;19.00;55.70
12977;DHT22;6553;48.412;9.514;2023-03-31T00:31:25;19.00;55.70
12977;DHT22;6553;48.412;9.514;2023-03-31T00:33:52;19.00;56.30
12977;DHT22;6553;48.412;9.514;2023-03-31T00:36:18;19.00;55.70
12977;DHT22;6553;48.412;9.514;2023-03-31T00:39:02;19.00;55.70
12977;DHT22;6553;48.412;9.514;2023-03-31T00:41:34;19.00;55.70
12977;DHT22;6553;48.412;9.514;2023-03-31T00:44:17;19.00;55.70
12977;DHT22;6553;48.412;9.514;2023-03-31T00:46:55;19.00;55.70
12977;DHT22;6553;48.412;9.514;2023-03-31T00:49:38;19.00;55.70
12977;DHT22;6553;48.412;9.514;2023-03-31T00:52:38;19.00;55.70
12977;DHT22;6553;48.412;9.514;2023-03-31T00:55:07;19.00;55.70
12977;DHT22;6553;48.412;9.514;2023-03-31T00:57:37;19.00;55.70
12977;DHT22;6553;48.412;9.514;2023-03-31T01:00:09;19.00;55.70
12977;DHT22;6553;48.412;9.514;2023-03-31T01:02:54;19.00;55.70
12977;DHT22;6553;48.412;9.514;2023-03-31T01:05:58;19.00;55.70
12977;DHT22;6553;48.412;9.514;2023-03-31T01:08:28;19.00;55.70
12977;DHT22;6553;48.412;9.514;2023-03-31T01:10:59;19.00;55.70
12977;DHT22;6553;48.412;9.514;2023-03-31T01:13:29;19.00;56.20
12977;DHT22;6553;48.412;9.514;2023-03-31T01:15:56;19.00;55.70
12977;DHT22;6553;48.412;9.514;2023-03-31T01:18:24;19.00;55.70
12977;DHT22;6553;48.412;9.514;2023-03-31T01:29:53;19.00;55.60
12977;DHT22;6553;48.412;9.514;2023-03-31T01:38:47;19.00;55.70
12977;DHT22;6553;48.412;9.514;2023-03-31T01:44:47;18.90;55.60
12977;DHT22;6553;48.412;9.514;2023-03-31T01:47:23;19.00;55.70
12977;DHT22;6553;48.412;9.514;2023-03-31T01:50:20;18.90;55.60
12977;DHT22;6553;48.412;9.514;2023-03-31T01:55:35;19.00;55.60
12977;DHT22;6553;48.412;9.514;2023-03-31T02:01:19;19.00;55.70
12977;DHT22;6553;48.412;9.514;2023-03-31T02:04:02;18.90;55.60
12977;DHT22;6553;48.412;9.514;2023-03-31T02:06:40;18.90;55.60
12977;DHT22;6553;48.412;9.514;2023-03-31T02:09:18;18.90;55.60
12977;DHT22;6553;48.412;9.514;2023-03-31T02:11:47;19.00;55.60
12977;DHT22;6553;48.412;9.514;2023-03-31T02:14:19;18.90;55.60
12977;DHT22;6553;48.412;9.514;2023-03-31T02:16:52;19.00;55.70
12977;DHT22;6553;48.412;9.514;2023-03-31T02:19:25;19.00;55.70
12977;DHT22;6553;48.412;9.514;2023-03-31T02:21:56;19.00;55.70
12977;DHT22;6553;48.412;9.514;2023-03-31T02:24:25;19.00;55.70
12977;DHT22;6553;48.412;9.514;2023-03-31T02:29:52;18.90;55.60
12977;DHT22;6553;48.412;9.514;2023-03-31T02:32:31;19.00;55.70
12977;DHT22;6553;48.412;9.514;2023-03-31T02:35:06;19.00;55.70
12977;DHT22;6553;48.412;9.514;2023-03-31T02:37:37;19.00;55.70
12977;DHT22;6553;48.412;9.514;2023-03-31T02:40:17;18.90;55.70
12977;DHT22;6553;48.412;9.514;2023-03-31T02:42:47;18.90;55.70
12977;DHT22;6553;48.412;9.514;2023-03-31T02:45:36;18.90;55.60
12977;DHT22;6553;48.412;9.514;2023-03-31T02:48:19;19.00;55.70
12977;DHT22;6553;48.412;9.514;2023-03-31T02:56:53;19.00;55.70
12977;DHT22;6553;48.412;9.514;2023-03-31T03:03:03;18.90;55.70
12977;DHT22;6553;48.412;9.514;2023-03-31T03:05:53;18.90;55.70
12977;DHT22;6553;48.412;9.514;2023-03-31T03:09:07;18.90;55.70
12977;DHT22;6553;48.412;9.514;2023-03-31T03:15:08;19.00;55.80
12977;DHT22;6553;48.412;9.514;2023-03-31T03:17:44;18.90;55.70
12977;DHT22;6553;48.412;9.514;2023-03-31T03:20:14;18.90;55.70
12977;DHT22;6553;48.412;9.514;2023-03-31T03:22:41;18.90;55.70
12977;DHT22;6553;48.412;9.514;2023-03-31T03:25:09;18.90;55.70
12977;DHT22;6553;48.412;9.514;2023-03-31T03:27:37;18.90;55.70
12977;DHT22;6553;48.412;9.514;2023-03-31T03:30:06;19.00;55.80
12977;DHT22;6553;48.412;9.514;2023-03-31T03:32:33;18.90;55.70
12977;DHT22;6553;48.412;9.514;2023-03-31T03:35:00;18.90;55.70
12977;DHT22;6553;48.412;9.514;2023-03-31T03:37:27;18.90;55.70
12977;DHT22;6553;48.412;9.514;2023-03-31T03:39:53;18.90;55.70
12977;DHT22;6553;48.412;9.514;2023-03-31T03:42:19;18.90;55.70
12977;DHT22;6553;48.412;9.514;2023-03-31T03:44:44;18.90;55.70
12977;DHT22;6553;48.412;9.514;2023-03-31T03:47:10;19.00;55.70
12977;DHT22;6553;48.412;9.514;2023-03-31T03:49:36;18.90;55.70
12977;DHT22;6553;48.412;9.514;2023-03-31T03:52:02;18.90;55.70
12977;DHT22;6553;48.412;9.514;2023-03-31T03:54:28;18.90;55.70
12977;DHT22;6553;48.412;9.514;2023-03-31T03:56:54;18.90;55.70
12977;DHT22;6553;48.412;9.514;2023-03-31T03:59:20;18.90;55.70
12977;DHT22;6553;48.412;9.514;2023-03-31T04:01:45;18.90;55.70
12977;DHT22;6553;48.412;9.514;2023-03-31T04:04:11;18.90;55.70
12977;DHT22;6553;48.412;9.514;2023-03-31T04:06:37;18.90;55.70
12977;DHT22;6553;48.412;9.514;2023-03-31T04:09:03;18.90;55.70
12977;DHT22;6553;48.412;9.514;2023-03-31T04:11:29;18.90;55.70
12977;DHT22;6553;48.412;9.514;2023-03-31T04:13:54;18.90;55.70
12977;DHT22;6553;48.412;9.514;2023-03-31T04:16:20;18.90;55.70
12977;DHT22;6553;48.412;9.514;2023-03-31T04:18:47;18.90;55.80
12977;DHT22;6553;48.412;9.514;2023-03-31T04:21:14;18.90;55.70
12977;DHT22;6553;48.412;9.514;2023-03-31T04:23:48;18.90;55.70
12977;DHT22;6553;48.412;9.514;2023-03-31T04:26:16;18.90;55.70
12977;DHT22;6553;48.412;9.514;2023-03-31T04:28:50;18.90;55.70
12977;DHT22;6553;48.412;9.514;2023-03-31T04:31:16;18.90;55.70
12977;DHT22;6553;48.412;9.514;2023-03-31T04:33:54;18.90;55.70
12977;DHT22;6553;48.412;9.514;2023-03-31T04:36:20;18.90;55.70
12977;DHT22;6553;48.412;9.514;2023-03-31T04:38:48;18.90;55.80
12977;DHT22;6553;48.412;9.514;2023-03-31T04:41:18;18.90;55.80
12977;DHT22;6553;48.412;9.514;2023-03-31T04:43:44;18.90;55.70
12977;DHT22;6553;48.412;9.514;2023-03-31T04:46:09;18.90;55.70
12977;DHT22;6553;48.412;9.514;2023-03-31T04:48:35;18.90;55.80
12977;DHT22;6553;48.412;9.514;2023-03-31T04:51:01;18.90;55.80
12977;DHT22;6553;48.412;9.514;2023-03-31T04:53:27;18.90;55.80
12977;DHT22;6553;48.412;9.514;2023-03-31T04:55:53;18.90;55.80
12977;DHT22;6553;48.412;9.514;2023-03-31T04:58:18;18.90;55.80
12977;DHT22;6553;48.412;9.514;2023-03-31T05:00:44;18.90;55.80
12977;DHT22;6553;48.412;9.514;2023-03-31T05:03:10;18.90;55.80
12977;DHT22;6553;48.412;9.514;2023-03-31T05:05:36;18.90;55.80
12977;DHT22;6553;48.412;9.514;2023-03-31T05:08:03;18.90;55.80
12977;DHT22;6553;48.412;9.514;2023-03-31T05:10:29;18.90;55.80
12977;DHT22;6553;48.412;9.514;2023-03-31T05:12:56;18.90;55.80
12977;DHT22;6553;48.412;9.514;2023-03-31T05:15:22;18.90;55.80
12977;DHT22;6553;48.412;9.514;2023-03-31T05:17:51;18.90;55.80
12977;DHT22;6553;48.412;9.514;2023-03-31T05:20:18;18.90;55.90
12977;DHT22;6553;48.412;9.514;2023-03-31T05:22:45;18.90;55.80
12977;DHT22;6553;48.412;9.514;2023-03-31T05:25:13;18.90;55.80
12977;DHT22;6553;48.412;9.514;2023-03-31T05:27:44;18.90;55.80
12977;DHT22;6553;48.412;9.514;2023-03-31T05:30:16;18.90;55.80
12977;DHT22;6553;48.412;9.514;2023-03-31T05:32:42;18.90;56.50
12977;DHT22;6553;48.412;9.514;2023-03-31T05:35:09;18.90;55.90
12977;DHT22;6553;48.412;9.514;2023-03-31T05:37:35;18.90;56.00
12977;DHT22;6553;48.412;9.514;2023-03-31T05:40:01;18.90;56.00
12977;DHT22;6553;48.412;9.514;2023-03-31T05:42:29;18.90;56.00
12977;DHT22;6553;48.412;9.514;2023-03-31T05:44:55;18.80;55.90
12977;DHT22;6553;48.412;9.514;2023-03-31T05:47:21;18.90;56.00
12977;DHT22;6553;48.412;9.514;2023-03-31T05:49:47;18.90;56.00
12977;DHT22;6553;48.412;9.514;2023-03-31T05:52:13;18.90;56.00
12977;DHT22;6553;48.412;9.514;2023-03-31T05:54:39;18.90;56.10
12977;DHT22;6553;48.412;9.514;2023-03-31T05:57:05;18.90;56.00
12977;DHT22;6553;48.412;9.514;2023-03-31T05:59:31;18.80;56.00
12977;DHT22;6553;48.412;9.514;2023-03-31T06:01:58;18.90;56.00
12977;DHT22;6553;48.412;9.514;2023-03-31T06:04:24;18.80;56.00
12977;DHT22;6553;48.412;9.514;2023-03-31T06:06:50;18.90;56.00
12977;DHT22;6553;48.412;9.514;2023-03-31T06:09:16;18.90;56.00
12977;DHT22;6553;48.412;9.514;2023-03-31T06:11:42;18.80;56.00
12977;DHT22;6553;48.412;9.514;2023-03-31T06:14:08;18.90;56.00
12977;DHT22;6553;48.412;9.514;2023-03-31T06:16:34;18.90;56.00
12977;DHT22;6553;48.412;9.514;2023-03-31T06:19:00;18.80;56.00
12977;DHT22;6553;48.412;9.514;2023-03-31T06:21:26;18.90;56.00
12977;DHT22;6553;48.412;9.514;2023-03-31T06:23:51;18.90;56.10
12977;DHT22;6553;48.412;9.514;2023-03-31T06:26:20;18.90;56.00
12977;DHT22;6553;48.412;9.514;2023-03-31T06:28:47;18.80;56.00
12977;DHT22;6553;48.412;9.514;2023-03-31T06:31:16;18.80;56.00
12977;DHT22;6553;48.412;9.514;2023-03-31T06:33:44;18.80;56.00
12977;DHT22;6553;48.412;9.514;2023-03-31T06:36:12;18.80;56.00
12977;DHT22;6553;48.412;9.514;2023-03-31T06:38:39;18.80;56.00
12977;DHT22;6553;48.412;9.514;2023-03-31T06:41:07;18.90;56.00
12977;DHT22;6553;48.412;9.514;2023-03-31T06:43:34;18.80;56.00
12977;DHT22;6553;48.412;9.514;2023-03-31T06:45:59;18.90;56.10
12977;DHT22;6553;48.412;9.514;2023-03-31T06:48:26;18.90;56.00
12977;DHT22;6553;48.412;9.514;2023-03-31T06:50:53;18.90;56.00
12977;DHT22;6553;48.412;9.514;2023-03-31T06:53:19;18.90;56.00
12977;DHT22;6553;48.412;9.514;2023-03-31T06:55:46;18.80;56.00
12977;DHT22;6553;48.412;9.514;2023-03-31T06:58:12;18.80;56.00
12977;DHT22;6553;48.412;9.514;2023-03-31T07:00:38;18.90;56.00
12977;DHT22;6553;48.412;9.514;2023-03-31T07:03:05;18.80;56.00
12977;DHT22;6553;48.412;9.514;2023-03-31T07:05:33;18.90;56.10
12977;DHT22;6553;48.412;9.514;2023-03-31T07:07:59;18.80;56.00
12977;DHT22;6553;48.412;9.514;2023-03-31T07:10:27;18.90;56.10
12977;DHT22;6553;48.412;9.514;2023-03-31T07:12:54;18.90;56.00
12977;DHT22;6553;48.412;9.514;2023-03-31T07:15:20;18.90;56.00
12977;DHT22;6553;48.412;9.514;2023-03-31T07:17:47;18.90;56.10
12977;DHT22;6553;48.412;9.514;2023-03-31T07:20:17;18.80;56.00
12977;DHT22;6553;48.412;9.514;2023-03-31T07:22:44;18.90;56.10
12977;DHT22;6553;48.412;9.514;2023-03-31T07:25:13;18.90;56.10
12977;DHT22;6553;48.412;9.514;2023-03-31T07:27:40;18.90;56.70
12977;DHT22;6553;48.412;9.514;2023-03-31T07:30:08;18.90;56.10
12977;DHT22;6553;48.412;9.514;2023-03-31T07:32:37;18.90;56.10
12977;DHT22;6553;48.412;9.514;2023-03-31T07:35:09;18.90;56.10
12977;DHT22;6553;48.412;9.514;2023-03-31T07:37:41;18.90;56.10
12977;DHT22;6553;48.412;9.514;2023-03-31T07:40:11;18.90;56.10
12977;DHT22;6553;48.412;9.514;2023-03-31T07:42:40;18.90;56.10
12977;DHT22;6553;48.412;9.514;2023-03-31T07:45:08;18.90;56.10
12977;DHT22;6553;48.412;9.514;2023-03-31T07:47:34;18.90;56.10
12977;DHT22;6553;48.412;9.514;2023-03-31T07:50:00;18.90;56.10
12977;DHT22;6553;48.412;9.514;2023-03-31T07:52:26;18.90;56.00
12977;DHT22;6553;48.412;9.514;2023-03-31T07:54:52;18.90;56.00
12977;DHT22;6553;48.412;9.514;2023-03-31T07:57:17;18.90;56.00
12977;DHT22;6553;48.412;9.514;2023-03-31T07:59:44;18.90;56.00
12977;DHT22;6553;48.412;9.514;2023-03-31T08:02:12;18.90;56.00
12977;DHT22;6553;48.412;9.514;2023-03-31T08:04:40;18.90;56.10
12977;DHT22;6553;48.412;9.514;2023-03-31T08:07:10;18.90;56.00
12977;DHT22;6553;48.412;9.514;2023-03-31T08:09:38;18.90;56.00
12977;DHT22;6553;48.412;9.514;2023-03-31T08:12:04;18.90;56.00
12977;DHT22;6553;48.412;9.514;2023-03-31T08:14:30;18.90;56.00
12977;DHT22;6553;48.412;9.514;2023-03-31T08:16:56;19.00;56.00
12977;DHT22;6553;48.412;9.514;2023-03-31T08:19:25;19.00;56.00
12977;DHT22;6553;48.412;9.514;2023-03-31T08:21:51;19.00;55.90
12977;DHT22;6553;48.412;9.514;2023-03-31T08:24:18;19.10;55.90
12977;DHT22;6553;48.412;9.514;2023-03-31T08:26:44;19.10;55.90
12977;DHT22;6553;48.412;9.514;2023-03-31T08:29:10;19.20;55.90
12977;DHT22;6553;48.412;9.514;2023-03-31T08:31:36;19.10;55.90
12977;DHT22;6553;48.412;9.514;2023-03-31T08:34:02;19.20;55.90
12977;DHT22;6553;48.412;9.514;2023-03-31T08:36:28;19.20;55.90
12977;DHT22;6553;48.412;9.514;2023-03-31T08:38:54;19.20;55.90
12977;DHT22;6553;48.412;9.514;2023-03-31T08:45:01;19.20;55.90
12977;DHT22;6553;48.412;9.514;2023-03-31T08:47:33;19.20;55.90
12977;DHT22;6553;48.412;9.514;2023-03-31T08:50:10;19.20;55.90
12977;DHT22;6553;48.412;9.514;2023-03-31T08:52:43;19.30;56.00
12977;DHT22;6553;48.412;9.514;2023-03-31T08:55:23;19.30;56.00
12977;DHT22;6553;48.412;9.514;2023-03-31T08:58:01;19.30;56.00
12977;DHT22;6553;48.412;9.514;2023-03-31T09:00:42;19.30;56.00
12977;DHT22;6553;48.412;9.514;2023-03-31T09:03:33;19.30;56.00
12977;DHT22;6553;48.412;9.514;2023-03-31T09:06:13;19.30;56.10
12977;DHT22;6553;48.412;9.514;2023-03-31T09:08:43;19.30;56.00
12977;DHT22;6553;48.412;9.514;2023-03-31T09:11:13;19.30;56.10
12977;DHT22;6553;48.412;9.514;2023-03-31T09:16:58;19.30;56.10
12977;DHT22;6553;48.412;9.514;2023-03-31T09:20:00;19.30;56.50
12977;DHT22;6553;48.412;9.514;2023-03-31T09:22:40;19.30;56.10
12977;DHT22;6553;48.412;9.514;2023-03-31T09:25:31;19.30;56.10
12977;DHT22;6553;48.412;9.514;2023-03-31T09:28:03;19.30;56.10
12977;DHT22;6553;48.412;9.514;2023-03-31T09:30:35;19.30;56.20
12977;DHT22;6553;48.412;9.514;2023-03-31T09:33:16;19.30;56.10
12977;DHT22;6553;48.412;9.514;2023-03-31T09:36:07;19.30;56.20
12977;DHT22;6553;48.412;9.514;2023-03-31T09:38:41;19.30;56.10
12977;DHT22;6553;48.412;9.514;2023-03-31T09:41:10;19.30;56.10
12977;DHT22;6553;48.412;9.514;2023-03-31T09:43:39;19.30;56.20
12977;DHT22;6553;48.412;9.514;2023-03-31T09:46:27;19.30;56.20
12977;DHT22;6553;48.412;9.514;2023-03-31T09:49:11;19.30;56.10
12977;DHT22;6553;48.412;9.514;2023-03-31T09:51:44;19.30;56.10
12977;DHT22;6553;48.412;9.514;2023-03-31T09:54:21;19.30;56.20
12977;DHT22;6553;48.412;9.514;2023-03-31T09:56:54;19.30;56.20
12977;DHT22;6553;48.412;9.514;2023-03-31T09:59:22;19.30;56.20
12977;DHT22;6553;48.412;9.514;2023-03-31T10:01:58;19.30;56.10
12977;DHT22;6553;48.412;9.514;2023-03-31T10:04:29;19.30;56.30
12977;DHT22;6553;48.412;9.514;2023-03-31T10:06:59;19.30;56.20
12977;DHT22;6553;48.412;9.514;2023-03-31T10:09:33;19.30;56.10
12977;DHT22;6553;48.412;9.514;2023-03-31T10:12:05;19.30;56.20
12977;DHT22;6553;48.412;9.514;2023-03-31T10:14:47;19.30;56.20
12977;DHT22;6553;48.412;9.514;2023-03-31T10:17:21;19.30;56.30
12977;DHT22;6553;48.412;9.514;2023-03-31T10:19:53;19.30;56.30
12977;DHT22;6553;48.412;9.514;2023-03-31T10:28:54;19.30;56.20
12977;DHT22;6553;48.412;9.514;2023-03-31T10:31:25;19.30;56.20
12977;DHT22;6553;48.412;9.514;2023-03-31T10:33:58;19.30;56.10
12977;DHT22;6553;48.412;9.514;2023-03-31T10:36:30;19.30;56.30
12977;DHT22;6553;48.412;9.514;2023-03-31T10:38:56;19.30;56.00
12977;DHT22;6553;48.412;9.514;2023-03-31T10:41:25;19.30;56.00
12977;DHT22;6553;48.412;9.514;2023-03-31T10:43:58;19.30;56.40
12977;DHT22;6553;48.412;9.514;2023-03-31T10:49:15;19.30;56.00
12977;DHT22;6553;48.412;9.514;2023-03-31T10:51:52;19.30;55.90
12977;DHT22;6553;48.412;9.514;2023-03-31T10:54:20;19.30;55.90
12977;DHT22;6553;48.412;9.514;2023-03-31T10:56:50;19.40;56.00
12977;DHT22;6553;48.412;9.514;2023-03-31T11:05:19;19.40;56.20
12977;DHT22;6553;48.412;9.514;2023-03-31T11:16:59;19.30;55.60
12977;DHT22;6553;48.412;9.514;2023-03-31T11:23:19;19.40;56.40
12977;DHT22;6553;48.412;9.514;2023-03-31T11:26:19;19.40;55.70
12977;DHT22;6553;48.412;9.514;2023-03-31T11:31:56;19.40;55.90
12977;DHT22;6553;48.412;9.514;2023-03-31T11:46:10;19.30;56.40
12977;DHT22;6553;48.412;9.514;2023-03-31T11:48:56;19.30;56.40
12977;DHT22;6553;48.412;9.514;2023-03-31T11:51:50;19.40;56.20
12977;DHT22;6553;48.412;9.514;2023-03-31T11:54:35;19.40;56.00
12977;DHT22;6553;48.412;9.514;2023-03-31T11:57:22;19.40;56.30
12977;DHT22;6553;48.412;9.514;2023-03-31T11:59:57;19.40;55.80
12977;DHT22;6553;48.412;9.514;2023-03-31T12:02:53;19.30;56.50
12977;DHT22;6553;48.412;9.514;2023-03-31T12:05:26;19.30;56.10
12977;DHT22;6553;48.412;9.514;2023-03-31T12:08:04;19.40;56.50
12977;DHT22;6553;48.412;9.514;2023-03-31T12:10:36;19.40;56.10
12977;DHT22;6553;48.412;9.514;2023-03-31T12:13:30;19.40;56.10
12977;DHT22;6553;48.412;9.514;2023-03-31T12:18:56;19.40;56.10
12977;DHT22;6553;48.412;9.514;2023-03-31T12:21:28;19.40;56.10
12977;DHT22;6553;48.412;9.514;2023-03-31T12:23:57;19.40;56.00
12977;DHT22;6553;48.412;9.514;2023-03-31T12:29:38;19.40;56.10
12977;DHT22;6553;48.412;9.514;2023-03-31T12:32:19;19.40;56.00
12977;DHT22;6553;48.412;9.514;2023-03-31T12:34:54;19.40;55.90
12977;DHT22;6553;48.412;9.514;2023-03-31T12:46:33;19.40;56.00
12977;DHT22;6553;48.412;9.514;2023-03-31T12:52:00;19.40;55.80
12977;DHT22;6553;48.412;9.514;2023-03-31T12:57:24;19.40;56.00
12977;DHT22;6553;48.412;9.514;2023-03-31T13:00:20;19.30;55.90
12977;DHT22;6553;48.412;9.514;2023-03-31T13:02:46;19.30;55.90
12977;DHT22;6553;48.412;9.514;2023-03-31T13:08:01;19.40;55.80
12977;DHT22;6553;48.412;9.514;2023-03-31T13:10:29;19.30;55.60
12977;DHT22;6553;48.412;9.514;2023-03-31T13:13:00;19.30;55.80
12977;DHT22;6553;48.412;9.514;2023-03-31T13:15:31;19.30;56.40
12977;DHT22;6553;48.412;9.514;2023-03-31T13:18:05;19.30;55.70
12977;DHT22;6553;48.412;9.514;2023-03-31T13:20:37;19.30;55.70
12977;DHT22;6553;48.412;9.514;2023-03-31T13:25:50;19.40;55.80
12977;DHT22;6553;48.412;9.514;2023-03-31T13:28:42;19.30;55.40
12977;DHT22;6553;48.412;9.514;2023-03-31T13:31:10;19.30;55.40
12977;DHT22;6553;48.412;9.514;2023-03-31T13:39:23;19.30;55.40
12977;DHT22;6553;48.412;9.514;2023-03-31T13:42:05;19.40;55.50
12977;DHT22;6553;48.412;9.514;2023-03-31T13:51:12;19.40;55.50
12977;DHT22;6553;48.412;9.514;2023-03-31T14:00:46;19.40;55.50
12977;DHT22;6553;48.412;9.514;2023-03-31T14:08:57;19.30;55.30
12977;DHT22;6553;48.412;9.514;2023-03-31T14:11:30;19.40;55.40
12977;DHT22;6553;48.412;9.514;2023-03-31T14:16:30;19.30;55.50
12977;DHT22;6553;48.412;9.514;2023-03-31T14:21:58;19.30;55.60
12977;DHT22;6553;48.412;9.514;2023-03-31T14:27:41;19.30;55.60
12977;DHT22;6553;48.412;9.514;2023-03-31T14:31:06;19.30;55.60
12977;DHT22;6553;48.412;9.514;2023-03-31T14:34:04;19.40;56.50
12977;DHT22;6553;48.412;9.514;2023-03-31T14:39:40;19.40;55.90
12977;DHT22;6553;48.412;9.514;2023-03-31T14:42:14;19.30;55.90
12977;DHT22;6553;48.412;9.514;2023-03-31T14:44:42;19.30;55.90
12977;DHT22;6553;48.412;9.514;2023-03-31T14:47:28;19.30;56.00
12977;DHT22;6553;48.412;9.514;2023-03-31T14:50:04;19.30;56.00
12977;DHT22;6553;48.412;9.514;2023-03-31T14:52:33;19.30;56.00
12977;DHT22;6553;48.412;9.514;2023-03-31T14:55:00;19.30;55.90
12977;DHT22;6553;48.412;9.514;2023-03-31T14:57:30;19.30;56.00
12977;DHT22;6553;48.412;9.514;2023-03-31T15:00:00;19.30;56.00
12977;DHT22;6553;48.412;9.514;2023-03-31T15:02:35;19.30;56.00
12977;DHT22;6553;48.412;9.514;2023-03-31T15:05:07;19.30;56.00
12977;DHT22;6553;48.412;9.514;2023-03-31T15:07:40;19.30;56.00
12977;DHT22;6553;48.412;9.514;2023-03-31T15:10:06;19.20;55.90
12977;DHT22;6553;48.412;9.514;2023-03-31T15:12:33;19.20;55.90
12977;DHT22;6553;48.412;9.514;2023-03-31T15:15:05;19.20;55.90
12977;DHT22;6553;48.412;9.514;2023-03-31T15:17:38;19.20;55.90
12977;DHT22;6553;48.412;9.514;2023-03-31T15:22:50;19.30;55.90
12977;DHT22;6553;48.412;9.514;2023-03-31T15:25:16;19.20;55.90
12977;DHT22;6553;48.412;9.514;2023-03-31T15:27:53;19.20;55.90
12977;DHT22;6553;48.412;9.514;2023-03-31T15:30:24;19.20;55.90
12977;DHT22;6553;48.412;9.514;2023-03-31T15:32:53;19.20;55.90
12977;DHT22;6553;48.412;9.514;2023-03-31T15:35:27;19.20;55.90
12977;DHT22;6553;48.412;9.514;2023-03-31T15:37:56;19.30;56.00
12977;DHT22;6553;48.412;9.514;2023-03-31T15:40:30;19.30;55.90
12977;DHT22;6553;48.412;9.514;2023-03-31T15:45:46;19.20;55.90
12977;DHT22;6553;48.412;9.514;2023-03-31T15:51:24;19.20;55.90
12977;DHT22;6553;48.412;9.514;2023-03-31T15:53:54;19.20;55.80
12977;DHT22;6553;48.412;9.514;2023-03-31T15:56:43;19.30;55.90
12977;DHT22;6553;48.412;9.514;2023-03-31T15:59:29;19.30;56.00
12977;DHT22;6553;48.412;9.514;2023-03-31T16:02:39;19.20;55.80
12977;DHT22;6553;48.412;9.514;2023-03-31T16:05:38;19.20;55.90
12977;DHT22;6553;48.412;9.514;2023-03-31T16:08:16;19.20;55.90
12977;DHT22;6553;48.412;9.514;2023-03-31T16:10:55;19.20;55.90
12977;DHT22;6553;48.412;9.514;2023-03-31T16:13:26;19.20;55.90
12977;DHT22;6553;48.412;9.514;2023-03-31T16:15:54;19.20;55.90
12977;DHT22;6553;48.412;9.514;2023-03-31T16:18:32;19.20;55.90
12977;DHT22;6553;48.412;9.514;2023-03-31T16:21:04;19.20;55.90
12977;DHT22;6553;48.412;9.514;2023-03-31T16:23:35;19.20;55.90
12977;DHT22;6553;48.412;9.514;2023-03-31T16:26:05;19.20;55.80
12977;DHT22;6553;48.412;9.514;2023-03-31T16:28:34;19.20;55.90
12977;DHT22;6553;48.412;9.514;2023-03-31T16:31:02;19.20;55.90
12977;DHT22;6553;48.412;9.514;2023-03-31T16:33:30;19.20;56.50
12977;DHT22;6553;48.412;9.514;2023-03-31T16:36:17;19.10;55.80
12977;DHT22;6553;48.412;9.514;2023-03-31T16:38:43;19.20;55.90
12977;DHT22;6553;48.412;9.514;2023-03-31T16:41:09;19.20;55.90
12977;DHT22;6553;48.412;9.514;2023-03-31T16:43:35;19.10;55.80
12977;DHT22;6553;48.412;9.514;2023-03-31T16:46:02;19.10;55.80
12977;DHT22;6553;48.412;9.514;2023-03-31T16:54:30;19.10;55.80
12977;DHT22;6553;48.412;9.514;2023-03-31T16:56:56;19.10;55.80
12977;DHT22;6553;48.412;9.514;2023-03-31T16:59:22;19.10;55.80
12977;DHT22;6553;48.412;9.514;2023-03-31T17:01:49;19.10;55.80
12977;DHT22;6553;48.412;9.514;2023-03-31T17:04:16;19.10;55.80
12977;DHT22;6553;48.412;9.514;2023-03-31T17:06:42;19.10;55.80
12977;DHT22;6553;48.412;9.514;2023-03-31T17:09:08;19.10;55.80
12977;DHT22;6553;48.412;9.514;2023-03-31T17:11:35;19.10;55.80
12977;DHT22;6553;48.412;9.514;2023-03-31T17:14:01;19.10;55.80
12977;DHT22;6553;48.412;9.514;2023-03-31T17:16:28;19.10;55.80
12977;DHT22;6553;48.412;9.514;2023-03-31T17:18:54;19.10;55.90
12977;DHT22;6553;48.412;9.514;2023-03-31T17:21:20;19.10;55.90
12977;DHT22;6553;48.412;9.514;2023-03-31T17:23:46;19.10;55.90
12977;DHT22;6553;48.412;9.514;2023-03-31T17:26:12;19.10;55.90
12977;DHT22;6553;48.412;9.514;2023-03-31T17:28:39;19.10;55.90
12977;DHT22;6553;48.412;9.514;2023-03-31T17:31:17;19.00;55.80
12977;DHT22;6553;48.412;9.514;2023-03-31T17:33:44;19.10;55.90
12977;DHT22;6553;48.412;9.514;2023-03-31T17:36:11;19.10;55.90
12977;DHT22;6553;48.412;9.514;2023-03-31T17:38:37;19.10;55.90
12977;DHT22;6553;48.412;9.514;2023-03-31T17:41:05;19.10;55.90
12977;DHT22;6553;48.412;9.514;2023-03-31T17:43:31;19.10;55.90
12977;DHT22;6553;48.412;9.514;2023-03-31T17:46:08;19.00;55.80
12977;DHT22;6553;48.412;9.514;2023-03-31T17:48:35;19.00;55.80
12977;DHT22;6553;48.412;9.514;2023-03-31T17:51:13;19.00;55.80
12977;DHT22;6553;48.412;9.514;2023-03-31T17:53:42;19.00;55.80
12977;DHT22;6553;48.412;9.514;2023-03-31T17:56:09;19.00;55.80
12977;DHT22;6553;48.412;9.514;2023-03-31T17:58:35;19.00;55.80
12977;DHT22;6553;48.412;9.514;2023-03-31T18:01:06;19.00;55.80
12977;DHT22;6553;48.412;9.514;2023-03-31T18:03:33;19.00;55.80
12977;DHT22;6553;48.412;9.514;2023-03-31T18:06:10;19.00;55.80
12977;DHT22;6553;48.412;9.514;2023-03-31T18:08:38;19.00;55.80
12977;DHT22;6553;48.412;9.514;2023-03-31T18:11:06;19.00;55.80
12977;DHT22;6553;48.412;9.514;2023-03-31T18:13:34;19.00;55.80
12977;DHT22;6553;48.412;9.514;2023-03-31T18:16:04;19.00;55.80
12977;DHT22;6553;48.412;9.514;2023-03-31T18:18:33;19.00;55.80
12977;DHT22;6553;48.412;9.514;2023-03-31T18:21:04;19.00;55.80
12977;DHT22;6553;48.412;9.514;2023-03-31T18:23:32;19.00;55.80
12977;DHT22;6553;48.412;9.514;2023-03-31T18:25:59;19.00;55.80
12977;DHT22;6553;48.412;9.514;2023-03-31T18:28:26;19.00;55.80
12977;DHT22;6553;48.412;9.514;2023-03-31T18:30:52;19.00;55.80
12977;DHT22;6553;48.412;9.514;2023-03-31T18:33:18;19.00;55.80
12977;DHT22;6553;48.412;9.514;2023-03-31T18:35:44;19.00;55.80
12977;DHT22;6553;48.412;9.514;2023-03-31T18:38:11;19.00;55.80
12977;DHT22;6553;48.412;9.514;2023-03-31T18:40:37;19.00;55.80
12977;DHT22;6553;48.412;9.514;2023-03-31T18:43:04;19.00;55.80
12977;DHT22;6553;48.412;9.514;2023-03-31T18:45:30;19.00;55.70
12977;DHT22;6553;48.412;9.514;2023-03-31T18:47:57;19.00;55.80
12977;DHT22;6553;48.412;9.514;2023-03-31T18:50:23;19.00;55.80
12977;DHT22;6553;48.412;9.514;2023-03-31T18:52:50;19.00;55.80
12977;DHT22;6553;48.412;9.514;2023-03-31T18:55:17;19.00;55.80
12977;DHT22;6553;48.412;9.514;2023-03-31T18:57:44;19.00;55.80
12977;DHT22;6553;48.412;9.514;2023-03-31T19:00:11;19.00;55.80